Time;durP1;ratioP1;P1;durP2;ratioP2;P2;SDS_P1;SDS_P2;PMS_P1;PMS_P2;Temp;Humidity;BMP_temperature;BMP_pressure;BME280_temperature;BME280_humidity;BME280_pressure;Samples;Min_cycle;Max_cycle;Signal;HPM_P1;HPM_P2
2021/04/04 00:00:06;;;;;;;1.88;0.52;;;4.60;79.90;;;;;;5044657;28;20125;-70
2021/04/04 00:02:32;;;;;;;1.20;0.35;;;4.60;81.10;;;;;;5062532;28;20028;-70
2021/04/04 00:04:57;;;;;;;1.15;0.40;;;4.60;81.80;;;;;;5063998;28;20088;-69
2021/04/04 00:07:23;;;;;;;1.02;0.40;;;4.60;81.50;;;;;;5063914;28;20017;-70
2021/04/04 00:09:49;;;;;;;0.50;0.30;;;4.50;81.40;;;;;;5046537;28;20064;-70
2021/04/04 00:12:14;;;;;;;2.35;0.70;;;4.60;81.40;;;;;;5044081;28;20077;-70
2021/04/04 00:14:40;;;;;;;3.67;1.08;;;4.50;81.70;;;;;;5043909;28;20052;-70
2021/04/04 00:17:05;;;;;;;7.20;1.20;;;4.60;81.50;;;;;;5044843;28;20037;-70
2021/04/04 00:19:31;;;;;;;3.60;1.23;;;4.60;81.80;;;;;;5043748;28;20093;-70
2021/04/04 00:21:57;;;;;;;7.80;1.42;;;4.60;81.00;;;;;;5043834;28;20036;-70
2021/04/04 00:24:22;;;;;;;3.58;1.10;;;4.60;80.90;;;;;;5057721;28;20059;-70
2021/04/04 00:26:48;;;;;;;7.45;1.23;;;4.60;81.20;;;;;;5053000;28;20040;-70
2021/04/04 00:29:13;;;;;;;6.07;1.10;;;4.60;81.60;;;;;;5056779;28;20039;-70
2021/04/04 00:31:39;;;;;;;3.10;1.00;;;4.50;81.70;;;;;;5062551;28;20365;-70
2021/04/04 00:34:05;;;;;;;4.18;1.00;;;4.50;81.90;;;;;;5043710;28;20009;-70
2021/04/04 00:36:31;;;;;;;4.53;1.40;;;4.50;81.90;;;;;;5026447;28;20055;-71
2021/04/04 00:38:57;;;;;;;3.33;1.08;;;4.50;80.70;;;;;;5042088;28;20005;-70
2021/04/04 00:41:22;;;;;;;4.55;1.33;;;4.50;80.60;;;;;;5042955;28;20082;-70
2021/04/04 00:43:48;;;;;;;2.95;1.00;;;4.50;80.60;;;;;;5052489;28;20017;-70
2021/04/04 00:46:14;;;;;;;5.45;1.20;;;4.50;80.60;;;;;;5062725;28;20257;-70
2021/04/04 00:48:39;;;;;;;4.10;0.98;;;4.60;81.40;;;;;;5053704;28;20063;-70
2021/04/04 00:51:05;;;;;;;6.45;1.45;;;4.50;81.70;;;;;;5026042;28;20048;-70
2021/04/04 00:53:31;;;;;;;3.53;0.80;;;4.50;82.10;;;;;;5049498;28;20067;-70
2021/04/04 00:55:56;;;;;;;4.40;1.17;;;4.50;82.00;;;;;;5062458;28;20207;-70
2021/04/04 00:58:22;;;;;;;2.38;1.13;;;4.50;81.90;;;;;;5062349;28;20082;-70
2021/04/04 01:00:47;;;;;;;4.68;1.20;;;4.50;82.50;;;;;;5061862;28;20067;-70
2021/04/04 01:03:13;;;;;;;4.53;1.20;;;4.40;82.50;;;;;;5062276;28;20017;-70
2021/04/04 01:05:45;;;;;;;4.43;1.40;;;4.40;83.20;;;;;;5062174;28;20013;-70
2021/04/04 01:08:11;;;;;;;5.45;1.67;;;4.40;84.10;;;;;;5046503;28;20021;-70
2021/04/04 01:10:42;;;;;;;3.33;1.35;;;4.40;84.60;;;;;;5045499;28;20279;-70
2021/04/04 01:13:33;;;;;;;6.18;1.77;;;4.40;85.00;;;;;;5045422;28;20036;-70
2021/04/04 01:16:16;;;;;;;3.90;1.30;;;4.40;85.60;;;;;;5061736;28;20009;-70
2021/04/04 01:19:09;;;;;;;3.22;1.10;;;4.40;86.10;;;;;;5062007;28;20009;-70
2021/04/04 01:21:46;;;;;;;4.38;1.13;;;4.40;86.30;;;;;;5009699;28;20341;-70
2021/04/04 01:24:33;;;;;;;4.82;1.38;;;4.50;86.30;;;;;;5063217;28;20080;-70
2021/04/04 01:27:07;;;;;;;4.07;1.08;;;4.40;86.00;;;;;;5063525;28;20068;-70
2021/04/04 01:29:34;;;;;;;4.68;1.10;;;4.40;85.30;;;;;;5045420;28;20012;-70
2021/04/04 01:31:59;;;;;;;4.60;1.50;;;4.50;85.20;;;;;;5061507;28;20009;-70
2021/04/04 01:34:27;;;;;;;3.72;1.30;;;4.50;84.60;;;;;;5062799;28;20020;-70
2021/04/04 01:36:54;;;;;;;5.00;1.60;;;4.40;85.00;;;;;;5061565;28;20009;-70
2021/04/04 01:39:21;;;;;;;4.78;1.10;;;4.40;85.10;;;;;;5061689;28;20009;-70
2021/04/04 01:41:47;;;;;;;4.65;1.05;;;4.30;84.70;;;;;;5061508;28;20019;-71
2021/04/04 01:44:16;;;;;;;3.13;1.10;;;4.30;84.70;;;;;;5061706;28;20290;-70
2021/04/04 01:46:43;;;;;;;3.45;1.25;;;4.30;84.80;;;;;;5056202;28;20016;-70
2021/04/04 01:49:09;;;;;;;4.55;1.30;;;4.30;84.80;;;;;;5054409;28;20013;-70
2021/04/04 01:51:35;;;;;;;4.72;2.03;;;4.20;84.80;;;;;;5061421;28;20063;-70
2021/04/04 01:54:03;;;;;;;1.92;0.98;;;4.30;84.50;;;;;;5061137;28;20028;-70
2021/04/04 01:56:29;;;;;;;1.42;0.70;;;4.20;84.40;;;;;;5061393;28;20314;-70
2021/04/04 01:58:54;;;;;;;3.03;0.95;;;4.30;84.90;;;;;;5061313;28;20080;-70
2021/04/04 02:01:20;;;;;;;1.35;0.40;;;4.30;84.90;;;;;;5061356;28;20028;-72
2021/04/04 02:03:46;;;;;;;3.15;0.80;;;4.30;84.80;;;;;;5061418;28;20009;-70
2021/04/04 02:06:18;;;;;;;5.05;1.23;;;4.20;84.90;;;;;;5061230;28;20028;-71
2021/04/04 02:08:43;;;;;;;5.75;1.35;;;4.20;84.50;;;;;;5061376;28;20016;-70
2021/04/04 02:11:17;;;;;;;4.43;1.48;;;4.20;84.00;;;;;;5060937;28;20084;-70
2021/04/04 02:13:42;;;;;;;3.78;1.52;;;4.20;83.50;;;;;;5044637;28;20005;-70
2021/04/04 02:16:08;;;;;;;2.38;1.30;;;4.20;83.10;;;;;;5044217;28;20253;-70
2021/04/04 02:18:33;;;;;;;4.05;1.20;;;4.10;83.10;;;;;;5054812;28;20029;-70
2021/04/04 02:20:59;;;;;;;4.60;1.58;;;4.10;83.50;;;;;;5041381;28;20017;-70
2021/04/04 02:23:25;;;;;;;4.97;1.73;;;4.10;83.20;;;;;;5030611;28;20009;-70
2021/04/04 02:25:55;;;;;;;4.50;1.50;;;4.10;82.90;;;;;;5061189;28;20052;-70
2021/04/04 02:28:21;;;;;;;3.63;1.30;;;4.10;82.90;;;;;;5061033;28;20063;-70
2021/04/04 02:30:47;;;;;;;3.25;1.45;;;4.10;82.90;;;;;;5044249;28;20119;-70
2021/04/04 02:33:30;;;;;;;2.53;1.00;;;4.10;82.90;;;;;;5057502;28;20013;-70
2021/04/04 02:35:59;;;;;;;5.70;1.42;;;4.10;82.50;;;;;;5059427;28;20009;-70
2021/04/04 02:38:36;;;;;;;4.80;1.40;;;4.10;81.40;;;;;;5060984;28;20029;-70
2021/04/04 02:41:02;;;;;;;4.07;1.38;;;4.10;80.90;;;;;;5061050;28;20027;-71
2021/04/04 02:43:29;;;;;;;4.88;1.17;;;4.10;79.80;;;;;;5040868;28;20013;-70
2021/04/04 02:45:56;;;;;;;5.32;1.38;;;4.10;78.80;;;;;;5053680;28;20028;-70
2021/04/04 02:48:32;;;;;;;3.78;1.15;;;4.10;78.00;;;;;;5052916;28;20013;-70
2021/04/04 02:51:00;;;;;;;4.25;1.30;;;4.10;77.00;;;;;;5024964;28;20036;-70
2021/04/04 02:53:26;;;;;;;6.25;1.70;;;4.10;75.70;;;;;;5032386;28;20335;-70
2021/04/04 02:55:52;;;;;;;4.88;1.48;;;4.10;74.90;;;;;;5065481;28;20023;-70
2021/04/04 02:58:17;;;;;;;3.00;1.40;;;4.10;74.20;;;;;;5059757;28;20279;-70
2021/04/04 03:00:43;;;;;;;3.45;1.35;;;4.10;73.90;;;;;;5056831;28;20080;-70
2021/04/04 03:03:09;;;;;;;4.15;1.10;;;4.10;73.60;;;;;;5026948;28;20315;-70
2021/04/04 03:05:34;;;;;;;3.80;1.10;;;4.00;73.90;;;;;;5028309;28;20208;-70
2021/04/04 03:08:05;;;;;;;4.20;1.25;;;4.00;74.10;;;;;;5045219;28;20112;-70
2021/04/04 03:10:31;;;;;;;1.73;0.73;;;4.00;74.60;;;;;;5060450;28;20048;-70
2021/04/04 03:12:56;;;;;;;3.72;1.25;;;4.00;75.10;;;;;;5064598;28;20005;-70
2021/04/04 03:15:22;;;;;;;2.13;1.08;;;4.00;75.60;;;;;;5064220;28;20327;-70
2021/04/04 03:17:48;;;;;;;2.33;1.20;;;4.00;74.70;;;;;;5065798;28;20067;-70
2021/04/04 03:20:14;;;;;;;4.20;1.38;;;4.10;73.70;;;;;;5045763;28;20377;-70
2021/04/04 03:22:42;;;;;;;3.08;1.10;;;4.10;73.80;;;;;;5044977;28;20076;-70
2021/04/04 03:25:08;;;;;;;2.67;1.20;;;4.20;75.10;;;;;;5045214;28;20398;-70
2021/04/04 03:27:35;;;;;;;5.97;1.83;;;4.20;75.50;;;;;;5044986;28;20026;-70
2021/04/04 03:30:02;;;;;;;6.07;1.25;;;4.20;74.00;;;;;;5045035;28;20080;-70
2021/04/04 03:32:27;;;;;;;4.15;1.40;;;4.10;73.40;;;;;;5033290;28;20094;-70
2021/04/04 03:34:53;;;;;;;5.32;2.00;;;4.10;73.60;;;;;;5047379;28;20013;-70
2021/04/04 03:37:19;;;;;;;3.95;1.10;;;4.20;74.00;;;;;;5064100;28;20008;-70
2021/04/04 03:39:44;;;;;;;5.60;1.25;;;4.20;73.80;;;;;;5063995;28;20024;-70
2021/04/04 03:42:10;;;;;;;3.95;1.83;;;4.20;73.20;;;;;;5064013;28;20392;-70
2021/04/04 03:44:38;;;;;;;4.47;1.42;;;4.20;73.10;;;;;;5063785;28;20281;-70
2021/04/04 03:47:04;;;;;;;5.22;1.40;;;4.10;72.90;;;;;;5043850;28;20036;-70
2021/04/04 03:49:29;;;;;;;3.97;1.48;;;4.20;72.40;;;;;;5056071;28;20211;-70
2021/04/04 03:51:55;;;;;;;4.38;0.95;;;4.20;71.40;;;;;;5040799;28;20059;-70
2021/04/04 03:54:21;;;;;;;4.18;1.20;;;4.20;71.60;;;;;;5060160;28;20037;-70
2021/04/04 03:56:48;;;;;;;3.22;1.30;;;4.30;72.40;;;;;;5063675;28;20044;-70
2021/04/04 03:59:14;;;;;;;4.38;1.55;;;4.30;74.20;;;;;;5063656;28;20358;-70
2021/04/04 04:01:43;;;;;;;2.90;1.25;;;4.30;73.90;;;;;;5063383;28;20043;-70
2021/04/04 04:04:10;;;;;;;3.80;1.30;;;4.30;72.40;;;;;;5063409;28;20330;-70
2021/04/04 04:06:37;;;;;;;2.72;1.00;;;4.30;71.40;;;;;;5043253;28;20101;-70
2021/04/04 04:09:14;;;;;;;4.68;1.55;;;4.30;70.70;;;;;;5038009;28;20028;-71
2021/04/04 04:11:41;;;;;;;2.83;1.20;;;4.30;69.70;;;;;;5050432;28;20021;-70
2021/04/04 04:14:08;;;;;;;4.82;1.20;;;4.30;70.20;;;;;;5026820;28;20006;-70
2021/04/04 04:16:37;;;;;;;4.43;1.30;;;4.30;71.00;;;;;;5043573;28;20010;-71
2021/04/04 04:19:03;;;;;;;4.60;1.40;;;4.30;71.90;;;;;;5045165;28;20013;-70
2021/04/04 04:21:31;;;;;;;3.47;1.33;;;4.30;72.00;;;;;;5063230;28;20017;-70
2021/04/04 04:23:56;;;;;;;4.70;1.40;;;4.30;70.60;;;;;;5063069;28;20321;-70
2021/04/04 04:26:22;;;;;;;2.63;1.33;;;4.40;70.50;;;;;;5046380;28;20017;-70
2021/04/04 04:28:47;;;;;;;4.00;1.30;;;4.40;70.00;;;;;;5046214;28;20013;-70
2021/04/04 04:31:24;;;;;;;4.40;1.30;;;4.40;72.00;;;;;;5046025;28;20012;-70
2021/04/04 04:33:52;;;;;;;4.85;1.15;;;4.40;72.30;;;;;;5027820;28;20051;-70
2021/04/04 04:36:18;;;;;;;3.88;1.20;;;4.40;72.10;;;;;;5042840;28;20005;-70
2021/04/04 04:38:43;;;;;;;4.03;1.20;;;4.40;71.20;;;;;;5052611;28;20028;-70
2021/04/04 04:41:09;;;;;;;6.22;1.20;;;4.40;70.70;;;;;;5063078;28;20025;-69
2021/04/04 04:43:37;;;;;;;2.83;1.20;;;4.40;70.60;;;;;;5062686;28;20020;-70
2021/04/04 04:46:02;;;;;;;5.38;1.55;;;4.40;71.50;;;;;;5062750;28;20378;-70
2021/04/04 04:48:30;;;;;;;5.55;1.40;;;4.30;71.30;;;;;;5063094;28;20019;-70
2021/04/04 04:50:55;;;;;;;3.90;1.23;;;4.30;72.00;;;;;;5062539;28;20016;-70
2021/04/04 04:53:21;;;;;;;2.80;1.40;;;4.20;73.20;;;;;;5062359;28;20060;-70
2021/04/04 04:55:47;;;;;;;8.38;2.10;;;4.20;74.30;;;;;;5062565;28;20079;-70
2021/04/04 04:58:12;;;;;;;6.75;1.65;;;4.20;74.20;;;;;;5045697;28;20008;-70
2021/04/04 05:00:38;;;;;;;4.97;1.85;;;4.20;74.60;;;;;;5062015;28;20076;-70
2021/04/04 05:03:04;;;;;;;5.55;1.58;;;4.10;74.70;;;;;;5045710;28;20051;-70
2021/04/04 05:05:29;;;;;;;4.38;1.80;;;4.10;76.30;;;;;;5062419;28;20085;-70
2021/04/04 05:07:55;;;;;;;5.60;1.98;;;4.00;77.30;;;;;;5062337;28;20326;-70
2021/04/04 05:10:21;;;;;;;5.32;2.20;;;4.00;77.80;;;;;;5062055;28;20025;-70
2021/04/04 05:12:55;;;;;;;5.57;1.85;;;4.00;78.40;;;;;;5061952;28;20076;-70
2021/04/04 05:15:23;;;;;;;6.38;2.40;;;3.90;79.40;;;;;;5045314;28;20207;-70
2021/04/04 05:17:49;;;;;;;7.13;2.33;;;3.90;80.40;;;;;;5045655;28;20011;-70
2021/04/04 05:20:16;;;;;;;8.50;2.15;;;3.90;80.70;;;;;;5062355;28;20044;-70
2021/04/04 05:22:41;;;;;;;7.78;2.63;;;3.90;80.90;;;;;;5061940;28;20294;-70
2021/04/04 05:25:08;;;;;;;7.88;2.47;;;3.90;81.60;;;;;;5061383;28;20012;-70
2021/04/04 05:27:33;;;;;;;6.13;2.35;;;3.90;82.40;;;;;;5061528;28;20397;-70
2021/04/04 05:29:59;;;;;;;8.38;2.75;;;3.90;83.10;;;;;;5061988;28;20032;-70
2021/04/04 05:32:25;;;;;;;7.00;2.63;;;3.90;83.60;;;;;;5062017;28;20005;-70
2021/04/04 05:34:51;;;;;;;5.47;2.53;;;3.90;83.70;;;;;;5061865;28;20024;-70
2021/04/04 05:37:16;;;;;;;11.32;3.10;;;4.00;83.60;;;;;;5061925;28;20012;-70
2021/04/04 05:39:42;;;;;;;6.07;2.75;;;4.00;84.10;;;;;;5061969;28;20215;-70
2021/04/04 05:42:09;;;;;;;10.80;3.03;;;4.00;84.20;;;;;;5061949;28;20199;-70
2021/04/04 05:44:40;;;;;;;6.72;2.33;;;4.00;84.60;;;;;;5063119;28;20031;-70
2021/04/04 05:47:15;;;;;;;6.53;2.58;;;4.00;85.20;;;;;;5061897;28;20013;-70
2021/04/04 05:50:05;;;;;;;9.77;2.53;;;4.00;84.30;;;;;;5061487;28;20009;-70
2021/04/04 05:52:41;;;;;;;5.97;2.20;;;4.00;84.50;;;;;;5061606;28;20013;-70
2021/04/04 05:55:09;;;;;;;10.68;3.10;;;4.00;84.70;;;;;;5061720;28;20037;-70
2021/04/04 05:57:41;;;;;;;7.22;2.90;;;4.00;85.10;;;;;;5061646;28;20100;-70
2021/04/04 06:00:08;;;;;;;8.15;2.58;;;4.10;85.30;;;;;;5061747;28;20017;-70
2021/04/04 06:03:04;;;;;;;8.07;2.67;;;4.10;85.50;;;;;;5061333;28;20044;-70
2021/04/04 06:05:50;;;;;;;10.68;2.97;;;4.20;85.70;;;;;;5062504;28;20028;-70
2021/04/04 06:09:15;;;;;;;6.47;2.58;;;4.40;85.20;;;;;;5061531;28;20183;-70
2021/04/04 06:11:41;;;;;;;5.22;2.42;;;4.40;84.80;;;;;;5001253;28;20319;-70
2021/04/04 06:14:22;;;;;;;12.48;3.53;;;4.50;84.80;;;;;;5001237;28;20014;-70
2021/04/04 06:17:15;;;;;;;6.95;2.72;;;4.50;84.90;;;;;;5035805;28;20032;-70
2021/04/04 06:19:53;;;;;;;7.05;2.63;;;4.50;85.20;;;;;;5059958;28;20229;-70
2021/04/04 06:22:24;;;;;;;7.57;3.08;;;4.60;85.40;;;;;;5061444;28;20079;-70
2021/04/04 06:24:54;;;;;;;9.30;3.20;;;4.70;85.40;;;;;;5057879;28;20022;-70
2021/04/04 06:27:24;;;;;;;9.23;3.63;;;4.70;85.30;;;;;;5011829;28;20012;-70
2021/04/04 06:30:04;;;;;;;7.30;3.00;;;4.70;85.60;;;;;;5042453;28;20002;-70
2021/04/04 06:32:37;;;;;;;8.23;3.33;;;4.70;85.60;;;;;;5060010;28;20005;-70
2021/04/04 06:35:13;;;;;;;7.53;2.70;;;4.80;85.90;;;;;;5061431;28;20029;-70
2021/04/04 06:38:02;;;;;;;12.13;3.50;;;4.80;85.90;;;;;;5063562;28;20009;-70
2021/04/04 06:40:56;;;;;;;12.05;4.10;;;4.80;86.10;;;;;;5048623;28;20078;-70
2021/04/04 06:44:00;;;;;;;11.70;3.53;;;4.80;86.60;;;;;;5050723;28;20038;-70
2021/04/04 06:47:04;;;;;;;9.70;3.22;;;4.90;86.90;;;;;;5045322;28;20021;-70
2021/04/04 06:49:53;;;;;;;9.27;3.53;;;4.90;86.90;;;;;;5045014;28;20029;-70
2021/04/04 06:52:48;;;;;;;13.50;3.42;;;4.90;87.00;;;;;;5051879;28;20071;-70
2021/04/04 06:55:20;;;;;;;17.77;4.45;;;5.00;86.90;;;;;;5047823;28;20029;-70
2021/04/04 06:57:52;;;;;;;;;;;5.00;87.20;;;;;;5063274;28;20012;-70
2021/04/04 07:00:37;;;;;;;24.58;5.97;;;5.00;87.20;;;;;;5045812;28;19947;-70
2021/04/04 07:03:07;;;;;;;12.32;4.38;;;5.00;87.40;;;;;;5045178;28;20005;-70
2021/04/04 07:05:39;;;;;;;14.50;4.13;;;5.10;87.30;;;;;;5044959;28;20009;-70
2021/04/04 07:08:40;;;;;;;13.60;4.43;;;5.20;86.60;;;;;;5061253;28;20009;-70
2021/04/04 07:11:32;;;;;;;17.58;5.72;;;5.20;86.90;;;;;;5064160;28;20013;-70
2021/04/04 07:14:10;;;;;;;16.50;5.63;;;5.20;87.10;;;;;;5064652;28;20013;-70
2021/04/04 07:16:57;;;;;;;14.18;5.10;;;5.10;87.30;;;;;;5048138;28;20013;-70
2021/04/04 07:19:32;;;;;;;14.23;4.55;;;5.20;87.50;;;;;;5050717;28;20041;-70
2021/04/04 07:22:16;;;;;;;12.68;4.30;;;5.20;87.40;;;;;;5044868;28;20013;-69
2021/04/04 07:25:12;;;;;;;11.23;3.95;;;5.30;87.20;;;;;;5053463;28;20017;-70
2021/04/04 07:28:02;;;;;;;18.20;4.80;;;5.40;87.20;;;;;;5056823;28;20017;-70
2021/04/04 07:30:56;;;;;;;15.48;5.18;;;5.40;87.50;;;;;;5064129;28;20051;-70
2021/04/04 07:33:42;;;;;;;15.18;5.25;;;5.40;87.40;;;;;;5047302;28;20063;-70
2021/04/04 07:36:20;;;;;;;11.45;4.53;;;5.50;87.30;;;;;;5063223;28;20079;-70
2021/04/04 07:38:50;;;;;;;18.50;5.35;;;5.60;87.00;;;;;;5063734;28;20012;-70
2021/04/04 07:41:36;;;;;;;15.65;5.80;;;5.70;86.80;;;;;;5047913;28;20016;-70
2021/04/04 07:44:06;;;;;;;11.63;4.00;;;5.70;86.30;;;;;;5063898;28;20013;-70
2021/04/04 07:46:54;;;;;;;16.00;4.55;;;5.80;86.20;;;;;;5038903;28;20077;-70
2021/04/04 07:49:47;;;;;;;15.30;4.25;;;5.80;85.80;;;;;;5043500;28;20016;-70
2021/04/04 07:52:16;;;;;;;10.30;3.72;;;5.90;85.80;;;;;;5062294;28;20290;-72
2021/04/04 07:54:56;;;;;;;14.55;4.43;;;6.00;85.90;;;;;;5063337;28;20040;-71
2021/04/04 07:57:30;;;;;;;13.35;4.00;;;6.00;85.50;;;;;;5063719;28;20025;-70
2021/04/04 07:59:57;;;;;;;12.63;4.20;;;6.10;85.30;;;;;;5063825;28;20302;-70
2021/04/04 08:02:33;;;;;;;14.50;5.05;;;6.10;85.00;;;;;;5063568;28;20087;-70
2021/04/04 08:05:15;;;;;;;12.57;4.60;;;6.10;85.20;;;;;;5063167;28;20017;-70
2021/04/04 08:07:57;;;;;;;;;;;6.10;85.20;;;;;;5047231;28;20031;-70
2021/04/04 08:10:30;;;;;;;;;;;6.20;85.30;;;;;;5063692;28;20206;-70
2021/04/04 08:13:20;;;;;;;14.07;4.55;;;6.30;84.80;;;;;;5063391;28;20241;-70
2021/04/04 08:15:53;;;;;;;14.63;4.32;;;6.50;84.40;;;;;;5064425;28;20314;-70
2021/04/04 08:18:18;;;;;;;13.25;4.55;;;6.40;84.60;;;;;;5063264;28;20059;-70
2021/04/04 08:20:47;;;;;;;14.68;4.57;;;6.30;84.80;;;;;;5046340;28;20009;-70
2021/04/04 08:23:23;;;;;;;15.55;4.90;;;6.30;84.70;;;;;;5063000;28;20016;-70
2021/04/04 08:26:07;;;;;;;13.10;4.05;;;6.40;84.90;;;;;;5057224;28;20002;-70
2021/04/04 08:28:46;;;;;;;11.27;4.00;;;6.50;84.90;;;;;;5043262;28;20298;-70
2021/04/04 08:31:15;;;;;;;15.18;4.40;;;6.50;84.70;;;;;;5058013;28;20222;-71
2021/04/04 08:33:55;;;;;;;15.48;5.15;;;6.50;84.60;;;;;;5063233;28;20032;-71
2021/04/04 08:36:23;;;;;;;13.45;3.75;;;6.60;83.90;;;;;;5049121;28;20021;-71
2021/04/04 08:38:49;;;;;;;17.13;4.57;;;6.80;81.40;;;;;;5043907;28;20006;-71
2021/04/04 08:41:16;;;;;;;13.82;3.83;;;6.80;79.00;;;;;;5029853;28;20063;-71
2021/04/04 08:44:09;;;;;;;16.75;4.03;;;6.90;78.30;;;;;;5027307;28;20014;-71
2021/04/04 08:46:47;;;;;;;14.43;3.85;;;7.00;78.50;;;;;;5043683;28;20303;-71
2021/04/04 08:49:13;;;;;;;17.17;3.67;;;7.00;78.30;;;;;;5043734;28;20017;-71
2021/04/04 08:51:40;;;;;;;12.50;3.50;;;7.10;78.00;;;;;;5043463;28;20315;-70
2021/04/04 08:54:14;;;;;;;12.05;3.47;;;7.10;77.80;;;;;;5062516;28;20479;-70
2021/04/04 08:56:43;;;;;;;14.13;3.70;;;7.20;77.40;;;;;;5062584;28;20124;-70
2021/04/04 08:59:09;;;;;;;14.25;3.97;;;7.30;76.50;;;;;;5062431;28;20021;-70
2021/04/04 09:01:38;;;;;;;16.25;3.65;;;7.30;76.30;;;;;;5045173;28;20012;-70
2021/04/04 09:04:08;;;;;;;14.55;3.15;;;7.40;76.10;;;;;;5062669;28;20013;-70
2021/04/04 09:06:39;;;;;;;16.20;4.15;;;7.50;75.90;;;;;;5062300;28;20080;-70
2021/04/04 09:09:26;;;;;;;16.20;4.10;;;7.40;75.10;;;;;;5062237;28;20188;-70
2021/04/04 09:11:53;;;;;;;12.48;3.00;;;7.50;76.00;;;;;;5062161;28;20024;-70
2021/04/04 09:14:19;;;;;;;10.50;3.13;;;7.60;76.10;;;;;;5062443;28;20020;-70
2021/04/04 09:16:55;;;;;;;12.93;3.28;;;7.80;75.30;;;;;;5062320;28;20020;-70
2021/04/04 09:19:31;;;;;;;15.30;3.95;;;7.80;75.20;;;;;;5062421;28;20019;-70
2021/04/04 09:21:57;;;;;;;11.32;3.40;;;7.70;75.30;;;;;;5045266;28;20036;-70
2021/04/04 09:24:24;;;;;;;14.65;3.22;;;7.80;75.50;;;;;;5061714;28;20017;-70
2021/04/04 09:26:50;;;;;;;10.27;3.00;;;7.80;75.00;;;;;;5062066;28;20322;-70
2021/04/04 09:29:16;;;;;;;17.00;3.45;;;7.90;75.00;;;;;;5061721;28;20254;-70
2021/04/04 09:31:42;;;;;;;17.52;3.67;;;7.90;74.70;;;;;;5061659;28;20036;-70
2021/04/04 09:34:14;;;;;;;14.80;3.67;;;7.90;74.80;;;;;;5061968;28;20016;-70
2021/04/04 09:36:44;;;;;;;13.93;3.38;;;8.00;74.40;;;;;;5061832;28;20013;-70
2021/04/04 09:39:11;;;;;;;15.77;3.78;;;8.00;74.30;;;;;;5061581;28;20009;-70
2021/04/04 09:41:40;;;;;;;13.88;3.97;;;8.10;74.70;;;;;;5041946;28;20052;-71
2021/04/04 09:44:07;;;;;;;12.50;3.10;;;8.20;74.50;;;;;;5053318;28;20080;-70
2021/04/04 09:46:33;;;;;;;16.02;3.95;;;8.20;73.90;;;;;;5061984;28;20009;-70
2021/04/04 09:48:59;;;;;;;16.83;4.13;;;8.10;74.50;;;;;;5061577;28;20039;-70
2021/04/04 09:51:24;;;;;;;18.42;4.43;;;8.00;74.60;;;;;;5061753;28;20318;-70
2021/04/04 09:53:53;;;;;;;14.07;3.58;;;8.00;74.80;;;;;;5061386;28;20212;-70
2021/04/04 09:56:29;;;;;;;19.88;4.20;;;8.00;75.50;;;;;;5045112;28;20012;-70
2021/04/04 09:58:55;;;;;;;15.35;3.83;;;7.90;76.00;;;;;;5021439;28;20014;-70
2021/04/04 10:01:26;;;;;;;17.90;4.32;;;8.00;75.90;;;;;;5027015;28;20437;-70
2021/04/04 10:03:54;;;;;;;17.27;3.30;;;7.80;76.20;;;;;;5011063;28;20303;-70
2021/04/04 10:06:20;;;;;;;18.35;4.18;;;7.80;76.50;;;;;;5041764;28;20005;-70
2021/04/04 10:08:53;;;;;;;19.45;4.43;;;7.90;76.50;;;;;;5051964;28;20051;-71
2021/04/04 10:11:19;;;;;;;18.30;4.10;;;7.90;76.90;;;;;;5062918;28;20253;-70
2021/04/04 10:13:45;;;;;;;16.02;3.83;;;7.90;77.50;;;;;;5049073;28;20016;-71
2021/04/04 10:16:23;;;;;;;12.57;3.20;;;7.90;78.00;;;;;;5065874;28;20021;-70
2021/04/04 10:19:08;;;;;;;17.75;4.55;;;7.90;78.20;;;;;;5065563;28;20082;-71
2021/04/04 10:21:36;;;;;;;11.38;3.38;;;8.00;78.20;;;;;;5065613;28;20004;-71
2021/04/04 10:24:30;;;;;;;12.88;4.53;;;8.10;78.20;;;;;;5065150;28;20035;-72
2021/04/04 10:27:26;;;;;;;13.85;3.80;;;8.10;78.30;;;;;;5066432;28;20008;-71
2021/04/04 10:30:17;;;;;;;14.88;3.30;;;8.10;78.60;;;;;;5048869;28;20016;-71
2021/04/04 10:32:46;;;;;;;12.57;3.13;;;8.00;79.30;;;;;;5065427;28;20009;-70
2021/04/04 10:35:13;;;;;;;17.30;4.60;;;8.00;80.10;;;;;;5065051;28;20024;-70
2021/04/04 10:37:39;;;;;;;19.25;4.63;;;7.80;80.60;;;;;;5048940;28;20325;-70
2021/04/04 10:40:09;;;;;;;23.23;4.75;;;7.70;81.50;;;;;;5065441;28;20064;-70
2021/04/04 10:42:35;;;;;;;23.23;4.13;;;7.50;82.40;;;;;;5048501;28;20009;-70
2021/04/04 10:45:14;;;;;;;17.48;3.63;;;7.40;83.00;;;;;;5048703;28;20303;-71
2021/04/04 10:47:40;;;;;;;18.65;4.32;;;7.40;83.60;;;;;;5049748;28;20014;-70
2021/04/04 10:50:09;;;;;;;20.13;4.85;;;7.40;83.50;;;;;;5066025;28;20055;-70
2021/04/04 10:52:35;;;;;;;18.75;4.18;;;7.40;84.10;;;;;;5049176;28;20005;-71
2021/04/04 10:55:01;;;;;;;20.17;4.72;;;7.50;84.00;;;;;;5048629;28;20033;-71
2021/04/04 10:57:28;;;;;;;22.15;4.60;;;7.60;84.30;;;;;;5065818;28;20100;-70
2021/04/04 10:59:55;;;;;;;31.35;12.30;;;7.60;84.40;;;;;;5048859;28;20376;-70
2021/04/04 11:02:24;;;;;;;23.92;7.00;;;7.50;84.60;;;;;;5065739;28;20009;-71
2021/04/04 11:04:50;;;;;;;25.05;5.78;;;7.40;85.30;;;;;;5065244;28;20201;-70
2021/04/04 11:07:19;;;;;;;15.75;3.95;;;7.40;86.40;;;;;;5065136;28;20047;-70
2021/04/04 11:09:46;;;;;;;17.70;4.43;;;7.50;86.70;;;;;;5048151;28;20310;-71
2021/04/04 11:12:12;;;;;;;15.55;3.47;;;7.40;87.10;;;;;;5065055;28;20017;-71
2021/04/04 11:14:37;;;;;;;13.60;3.58;;;7.40;87.90;;;;;;5048036;28;20020;-71
2021/04/04 11:17:03;;;;;;;19.52;3.58;;;7.30;88.00;;;;;;5048303;28;20373;-71
2021/04/04 11:19:29;;;;;;;16.08;3.35;;;7.30;88.10;;;;;;5047900;28;20079;-71
2021/04/04 11:21:55;;;;;;;20.55;4.70;;;7.30;87.90;;;;;;5047808;28;20009;-71
2021/04/04 11:24:24;;;;;;;20.40;4.32;;;7.30;87.90;;;;;;5063655;28;20072;-71
2021/04/04 11:26:51;;;;;;;15.57;4.03;;;7.40;87.80;;;;;;5048214;28;20027;-71
2021/04/04 11:29:21;;;;;;;31.40;8.98;;;7.50;87.50;;;;;;5064585;28;20036;-71
2021/04/04 11:31:48;;;;;;;21.85;5.22;;;7.60;87.20;;;;;;5063980;28;20021;-71
2021/04/04 11:34:26;;;;;;;23.00;5.80;;;7.60;87.10;;;;;;5047430;28;20072;-71
2021/04/04 11:36:52;;;;;;;15.90;4.18;;;7.60;86.60;;;;;;5065361;28;20353;-71
2021/04/04 11:39:18;;;;;;;19.08;4.75;;;7.60;86.00;;;;;;5048064;28;20013;-71
2021/04/04 11:41:49;;;;;;;15.65;4.20;;;7.60;85.70;;;;;;5066619;28;20020;-71
2021/04/04 11:44:17;;;;;;;16.50;3.55;;;7.70;85.00;;;;;;5064565;28;20017;-71
2021/04/04 11:46:48;;;;;;;16.35;3.30;;;7.80;84.40;;;;;;5064501;28;20013;-71
2021/04/04 11:49:32;;;;;;;40.67;9.57;;;8.00;83.40;;;;;;5064845;28;20012;-71
2021/04/04 11:52:18;;;;;;;29.35;8.38;;;8.10;82.10;;;;;;5064038;28;20017;-71
2021/04/04 11:54:48;;;;;;;16.25;4.30;;;8.30;81.20;;;;;;5049518;28;20051;-71
2021/04/04 11:57:24;;;;;;;11.82;3.30;;;8.40;80.40;;;;;;5064047;28;20080;-71
2021/04/04 11:59:50;;;;;;;14.18;4.15;;;8.70;79.20;;;;;;5063616;28;20055;-71
2021/04/04 12:02:17;;;;;;;11.32;3.15;;;8.90;77.40;;;;;;5046989;28;20009;-71
2021/04/04 12:04:47;;;;;;;9.45;2.60;;;9.00;75.70;;;;;;5047609;28;20076;-71
2021/04/04 12:07:17;;;;;;;10.68;2.92;;;9.10;75.10;;;;;;5047889;28;20217;-71
2021/04/04 12:09:44;;;;;;;6.65;1.92;;;9.20;74.80;;;;;;5063386;28;20058;-71
2021/04/04 12:12:10;;;;;;;6.22;2.47;;;9.40;73.40;;;;;;5046867;28;20379;-71
2021/04/04 12:14:49;;;;;;;9.27;2.67;;;9.60;71.80;;;;;;5063551;28;20041;-71
2021/04/04 12:17:15;;;;;;;5.97;1.80;;;9.50;72.10;;;;;;5063875;28;20005;-71
2021/04/04 12:19:42;;;;;;;8.35;2.50;;;9.50;71.80;;;;;;5064081;28;20474;-71
2021/04/04 12:22:08;;;;;;;9.27;2.30;;;9.40;73.10;;;;;;5064330;28;20260;-71
2021/04/04 12:24:57;;;;;;;8.55;2.38;;;9.30;73.50;;;;;;5063911;28;20012;-71
2021/04/04 12:27:24;;;;;;;8.77;2.80;;;9.30;73.60;;;;;;5049195;28;20017;-71
2021/04/04 12:29:54;;;;;;;9.90;3.25;;;9.30;72.90;;;;;;5047013;28;20084;-71
2021/04/04 12:32:23;;;;;;;9.15;3.25;;;9.30;73.30;;;;;;5047054;28;20222;-71
2021/04/04 12:34:50;;;;;;;5.57;1.95;;;9.20;73.00;;;;;;5062885;28;20028;-71
2021/04/04 12:37:18;;;;;;;5.50;1.50;;;9.30;73.50;;;;;;5047125;28;20009;-71
2021/04/04 12:39:44;;;;;;;6.55;2.10;;;9.20;73.40;;;;;;5046832;28;20055;-71
2021/04/04 12:42:11;;;;;;;6.40;1.83;;;9.20;73.20;;;;;;5046623;28;20222;-71
2021/04/04 12:44:38;;;;;;;8.63;1.50;;;9.20;73.20;;;;;;5064302;28;20009;-71
2021/04/04 12:47:08;;;;;;;10.27;2.08;;;9.00;73.50;;;;;;5038266;28;20014;-71
2021/04/04 12:49:33;;;;;;;7.85;1.88;;;9.10;74.00;;;;;;5059184;28;20017;-71
2021/04/04 12:51:59;;;;;;;5.35;1.40;;;9.10;74.30;;;;;;5062861;28;20059;-71
2021/04/04 12:54:25;;;;;;;6.03;1.80;;;9.20;74.20;;;;;;5063555;28;20078;-72
2021/04/04 12:56:50;;;;;;;6.95;1.80;;;9.30;73.70;;;;;;5046416;28;20040;-71
2021/04/04 12:59:16;;;;;;;8.10;2.05;;;9.30;73.90;;;;;;5046058;28;20251;-71
2021/04/04 13:01:45;;;;;;;4.95;1.35;;;9.40;73.80;;;;;;5062947;28;20108;-71
2021/04/04 13:04:18;;;;;;;5.95;1.70;;;9.40;73.70;;;;;;5047126;28;20025;-71
2021/04/04 13:06:44;;;;;;;6.10;1.52;;;9.40;73.70;;;;;;5053621;28;20009;-71
2021/04/04 13:09:13;;;;;;;5.15;1.50;;;9.40;73.70;;;;;;5062962;28;20038;-71
2021/04/04 13:11:40;;;;;;;3.42;1.20;;;9.30;73.70;;;;;;5062524;28;20127;-71